Time;durP1;ratioP1;P1;durP2;ratioP2;P2;SDS_P1;SDS_P2;PMS_P1;PMS_P2;Temp;Humidity;BMP_temperature;BMP_pressure;BME280_temperature;BME280_humidity;BME280_pressure;Samples;Min_cycle;Max_cycle;Signal;HPM_P1;HPM_P2
2023/01/28 00:01:47;;;;;;;35.42;22.35;;;3.20;99.90;;;;;;5056809;28;20381;-48
2023/01/28 00:04:14;;;;;;;32.13;20.73;;;3.20;99.90;;;;;;5056556;28;20375;-50
2023/01/28 00:06:40;;;;;;;33.08;21.02;;;3.20;99.90;;;;;;5042975;28;20036;-51
2023/01/28 00:09:06;;;;;;;35.90;20.67;;;3.20;99.90;;;;;;5038438;28;20026;-50
2023/01/28 00:11:32;;;;;;;34.20;21.95;;;3.20;99.90;;;;;;5037651;28;20029;-49
2023/01/28 00:13:59;;;;;;;31.50;20.70;;;3.20;99.90;;;;;;5044579;28;20470;-48
2023/01/28 00:16:26;;;;;;;30.40;21.17;;;3.20;99.90;;;;;;5045890;28;20056;-49
2023/01/28 00:18:52;;;;;;;29.83;20.08;;;3.10;99.90;;;;;;5020140;28;20033;-50
2023/01/28 00:21:18;;;;;;;35.53;21.70;;;2.80;99.90;;;;;;5038448;28;20389;-50
2023/01/28 00:23:51;;;;;;;35.78;22.83;;;3.00;99.90;;;;;;5039005;28;20029;-48
2023/01/28 00:26:17;;;;;;;34.40;21.15;;;3.00;99.90;;;;;;5036323;28;20037;-48
2023/01/28 00:28:43;;;;;;;32.67;19.63;;;3.00;99.90;;;;;;5035842;28;20124;-48
2023/01/28 00:31:15;;;;;;;32.03;20.80;;;3.10;99.90;;;;;;5035979;28;20112;-50
2023/01/28 00:33:40;;;;;;;34.20;22.17;;;3.10;99.90;;;;;;5035815;28;20188;-50
2023/01/28 00:36:06;;;;;;;29.52;18.65;;;3.20;99.90;;;;;;5034089;28;20532;-49
2023/01/28 00:38:33;;;;;;;26.70;15.07;;;3.00;99.90;;;;;;5017220;28;20053;-48
2023/01/28 00:41:09;;;;;;;34.45;20.65;;;3.00;99.90;;;;;;5036247;28;20060;-47
2023/01/28 00:43:36;;;;;;;31.05;20.60;;;3.10;99.90;;;;;;5035933;28;20037;-50
2023/01/28 00:46:02;;;;;;;33.92;19.80;;;3.10;99.90;;;;;;5017476;28;20504;-47
2023/01/28 00:48:28;;;;;;;31.35;20.35;;;3.00;99.90;;;;;;5017234;28;20045;-47
2023/01/28 00:50:54;;;;;;;34.67;21.98;;;3.10;99.90;;;;;;5035595;28;20439;-50
2023/01/28 00:53:19;;;;;;;38.33;21.80;;;3.10;99.90;;;;;;5035562;28;20382;-49
2023/01/28 00:55:45;;;;;;;32.28;20.20;;;3.10;99.90;;;;;;5035913;28;20030;-49
2023/01/28 00:58:11;;;;;;;36.17;22.80;;;3.00;99.90;;;;;;5035608;28;20018;-49
2023/01/28 01:00:36;;;;;;;38.10;22.38;;;3.10;99.90;;;;;;5033367;28;20033;-49
2023/01/28 01:03:02;;;;;;;34.55;21.55;;;3.20;99.90;;;;;;5033581;28;20041;-49
2023/01/28 01:05:28;;;;;;;37.53;22.33;;;3.10;99.90;;;;;;5041827;28;20116;-48
2023/01/28 01:07:54;;;;;;;36.97;23.17;;;3.10;99.90;;;;;;5054988;28;20492;-48
2023/01/28 01:10:20;;;;;;;38.67;22.40;;;3.10;99.90;;;;;;5055040;28;20025;-49
2023/01/28 01:12:47;;;;;;;36.38;23.00;;;3.10;99.90;;;;;;5020037;28;20037;-47
2023/01/28 01:15:14;;;;;;;31.38;18.60;;;3.10;99.90;;;;;;5056133;28;20041;-56
2023/01/28 01:17:42;;;;;;;35.15;20.38;;;3.10;99.90;;;;;;5061534;28;20028;-51
2023/01/28 01:20:14;;;;;;;38.83;23.27;;;3.10;99.90;;;;;;5060325;28;20021;-57
2023/01/28 01:22:40;;;;;;;33.38;20.17;;;3.20;99.90;;;;;;5059987;28;20376;-55
2023/01/28 01:25:06;;;;;;;27.40;16.63;;;3.20;99.90;;;;;;5060778;28;20064;-55
2023/01/28 01:27:32;;;;;;;36.42;22.13;;;3.10;99.90;;;;;;5058738;28;20041;-48
2023/01/28 01:29:58;;;;;;;26.08;13.70;;;3.10;99.90;;;;;;5054676;28;20536;-49
2023/01/28 01:32:27;;;;;;;38.10;21.98;;;2.90;99.90;;;;;;5054966;28;20057;-50
2023/01/28 01:34:53;;;;;;;31.55;18.95;;;3.10;99.90;;;;;;5054556;28;20029;-50
2023/01/28 01:37:19;;;;;;;34.45;20.90;;;3.10;99.90;;;;;;5036242;28;20047;-50
2023/01/28 01:39:44;;;;;;;33.67;19.38;;;3.10;99.90;;;;;;5019617;28;20032;-48
2023/01/28 01:42:12;;;;;;;34.38;20.08;;;3.10;99.90;;;;;;5054669;28;20032;-49
2023/01/28 01:44:59;;;;;;;37.40;20.73;;;3.00;99.90;;;;;;5054620;28;20043;-49
2023/01/28 01:47:54;;;;;;;39.03;21.83;;;3.00;99.90;;;;;;5035880;28;20041;-49
2023/01/28 01:50:36;;;;;;;36.13;19.02;;;2.90;99.90;;;;;;4996262;28;20061;-51
2023/01/28 01:53:15;;;;;;;32.85;19.42;;;2.90;99.90;;;;;;5012296;28;20038;-50
2023/01/28 01:55:45;;;;;;;37.60;21.45;;;2.80;99.90;;;;;;4957070;28;20045;-50
2023/01/28 01:58:15;;;;;;;27.10;15.07;;;2.90;99.90;;;;;;4973324;28;20130;-50
2023/01/28 02:00:41;;;;;;;32.60;18.98;;;2.70;99.90;;;;;;4973366;28;20368;-50
2023/01/28 02:03:09;;;;;;;39.40;21.63;;;2.80;99.90;;;;;;4973310;28;20030;-50
2023/01/28 02:05:35;;;;;;;22.55;10.90;;;2.90;99.90;;;;;;4973247;28;20047;-51
2023/01/28 02:08:21;;;;;;;39.30;19.60;;;2.80;99.90;;;;;;4972976;28;20134;-49
2023/01/28 02:11:04;;;;;;;42.03;19.85;;;2.90;99.90;;;;;;4973126;28;20147;-50
2023/01/28 02:13:38;;;;;;;41.13;21.65;;;3.00;99.90;;;;;;4973018;28;20050;-49
2023/01/28 02:16:06;;;;;;;39.35;22.33;;;2.90;99.90;;;;;;4972936;28;20043;-50
2023/01/28 02:18:32;;;;;;;38.88;21.45;;;3.00;99.90;;;;;;4972429;28;20522;-49
2023/01/28 02:21:25;;;;;;;24.05;12.90;;;3.10;99.90;;;;;;4972832;28;20039;-50
2023/01/28 02:24:00;;;;;;;35.03;21.20;;;3.10;99.90;;;;;;4972555;28;20039;-49
2023/01/28 02:26:56;;;;;;;36.75;20.23;;;3.20;99.90;;;;;;4993565;28;20394;-48
2023/01/28 02:29:46;;;;;;;34.00;21.52;;;3.20;99.90;;;;;;5053783;28;20495;-50
2023/01/28 02:32:38;;;;;;;39.08;21.83;;;3.10;99.90;;;;;;5053724;28;20055;-50
2023/01/28 02:35:38;;;;;;;35.95;20.30;;;3.10;99.90;;;;;;5032138;28;20451;-50
2023/01/28 02:38:32;;;;;;;33.80;20.05;;;3.10;99.90;;;;;;5051617;28;20079;-49
2023/01/28 02:41:08;;;;;;;37.03;21.20;;;3.10;99.90;;;;;;5035036;28;20040;-50
2023/01/28 02:43:40;;;;;;;35.85;21.45;;;3.20;99.90;;;;;;5053393;28;20035;-49
2023/01/28 02:49:13;;;;;;;36.83;21.48;;;3.20;99.90;;;;;;5054005;28;20140;-48
2023/01/28 02:51:49;;;;;;;36.00;21.88;;;3.30;99.90;;;;;;5053526;28;20025;-49
2023/01/28 02:54:31;;;;;;;38.47;21.85;;;3.40;99.90;;;;;;5053410;28;20033;-48
2023/01/28 02:57:18;;;;;;;;;;;3.30;99.90;;;;;;5054027;28;20036;-48
2023/01/28 03:00:06;;;;;;;36.50;20.08;;;3.40;99.90;;;;;;5052993;28;19913;-50
2023/01/28 03:02:55;;;;;;;37.10;22.77;;;3.30;99.90;;;;;;5011298;28;20049;-50
2023/01/28 03:05:27;;;;;;;36.10;21.48;;;3.20;99.90;;;;;;5011389;28;20445;-48
2023/01/28 03:07:53;;;;;;;30.10;20.15;;;3.10;99.90;;;;;;5011167;28;20056;-50
2023/01/28 03:10:22;;;;;;;37.45;21.45;;;3.10;99.90;;;;;;5011296;28;20030;-50
2023/01/28 03:38:53;;;;;;;33.63;20.13;;;3.10;99.90;;;;;;4960322;28;20061;-48
2023/01/28 03:41:23;;;;;;;38.30;21.75;;;3.00;99.90;;;;;;4975928;28;20035;-49
2023/01/28 03:43:50;;;;;;;41.20;23.55;;;3.10;99.90;;;;;;4985805;28;20066;-49
2023/01/28 03:46:17;;;;;;;37.72;22.65;;;3.20;99.90;;;;;;4962742;28;20097;-49
2023/01/28 03:48:43;;;;;;;31.88;19.55;;;3.20;99.90;;;;;;4995058;28;20398;-49
2023/01/28 03:51:10;;;;;;;39.17;23.23;;;3.20;99.90;;;;;;4995191;28;20030;-48
2023/01/28 03:53:36;;;;;;;39.30;23.30;;;3.10;99.90;;;;;;4995002;28;20035;-48
2023/01/28 03:56:02;;;;;;;24.33;13.63;;;3.20;99.90;;;;;;4995222;28;20029;-50
2023/01/28 04:01:25;;;;;;;39.70;22.35;;;3.00;99.90;;;;;;4936889;29;20058;-50
2023/01/28 04:03:51;;;;;;;36.05;20.13;;;3.10;99.90;;;;;;4937105;29;20476;-48
2023/01/28 04:06:17;;;;;;;33.72;20.02;;;3.00;99.90;;;;;;4955020;28;20448;-49
2023/01/28 04:08:51;;;;;;;39.30;22.23;;;2.90;99.90;;;;;;5014298;28;20037;-49
2023/01/28 04:11:19;;;;;;;40.92;23.98;;;3.00;99.90;;;;;;5014356;28;20401;-49
2023/01/28 04:13:48;;;;;;;45.15;24.15;;;3.00;99.90;;;;;;5014289;28;20112;-48
2023/01/28 04:16:16;;;;;;;36.92;20.90;;;3.10;99.90;;;;;;5014494;28;20029;-49
2023/01/28 04:18:42;;;;;;;37.90;23.23;;;3.20;99.90;;;;;;5014075;28;20045;-50
2023/01/28 04:21:08;;;;;;;41.40;23.23;;;3.20;99.90;;;;;;5014356;28;20586;-48
2023/01/28 04:23:34;;;;;;;46.20;24.70;;;3.10;99.90;;;;;;5014170;28;20092;-49
2023/01/28 04:26:00;;;;;;;42.95;24.00;;;3.20;99.90;;;;;;5014167;28;20050;-50
2023/01/28 04:28:26;;;;;;;42.50;23.98;;;3.10;99.90;;;;;;5014087;28;20445;-50
2023/01/28 04:30:52;;;;;;;23.77;12.68;;;3.20;99.90;;;;;;5013998;28;20072;-48
2023/01/28 04:33:18;;;;;;;44.40;24.15;;;3.00;99.90;;;;;;5013968;28;20065;-49
2023/01/28 04:35:44;;;;;;;41.58;23.08;;;3.10;99.90;;;;;;5013575;28;20034;-49
2023/01/28 04:38:09;;;;;;;39.05;21.92;;;3.20;99.90;;;;;;5036804;28;20075;-49
2023/01/28 04:40:35;;;;;;;35.60;20.45;;;3.20;99.90;;;;;;5055541;28;20033;-49
2023/01/28 04:43:01;;;;;;;38.03;23.40;;;3.30;99.90;;;;;;5055681;28;20464;-49
2023/01/28 04:45:26;;;;;;;42.03;24.00;;;3.40;99.90;;;;;;5054953;28;20473;-49
2023/01/28 04:47:52;;;;;;;38.83;23.00;;;3.40;99.90;;;;;;5055475;28;20112;-50
2023/01/28 04:50:18;;;;;;;42.35;23.45;;;3.40;99.90;;;;;;5037068;28;20044;-50
2023/01/28 04:52:43;;;;;;;39.40;23.55;;;3.50;99.90;;;;;;5055689;28;20059;-49
2023/01/28 04:55:10;;;;;;;42.80;24.15;;;3.40;99.90;;;;;;5036970;28;20086;-49
2023/01/28 04:57:35;;;;;;;40.97;24.08;;;3.50;99.90;;;;;;5055759;28;20032;-49
2023/01/28 05:00:02;;;;;;;40.35;24.92;;;3.40;99.90;;;;;;5055783;28;20025;-48
2023/01/28 05:02:28;;;;;;;38.00;24.27;;;3.40;99.90;;;;;;5020305;28;20044;-48
2023/01/28 05:04:54;;;;;;;38.22;21.35;;;3.50;99.90;;;;;;5055034;28;20032;-49
2023/01/28 05:07:19;;;;;;;45.90;25.80;;;3.50;99.90;;;;;;5055153;28;20048;-50
2023/01/28 05:09:45;;;;;;;41.90;22.15;;;3.50;99.90;;;;;;5055628;28;20087;-50
2023/01/28 05:12:11;;;;;;;38.92;23.15;;;3.40;99.90;;;;;;5055257;28;20091;-48
2023/01/28 05:14:36;;;;;;;41.47;25.15;;;3.40;99.90;;;;;;5054987;28;20051;-48
2023/01/28 05:17:02;;;;;;;41.00;24.63;;;3.50;99.90;;;;;;5020039;28;20440;-48
2023/01/28 05:19:28;;;;;;;43.03;24.90;;;3.40;99.90;;;;;;5055284;28;20104;-48
2023/01/28 05:21:54;;;;;;;41.72;23.17;;;3.40;99.90;;;;;;5036378;28;20044;-50
2023/01/28 05:24:20;;;;;;;39.30;21.20;;;3.20;99.90;;;;;;5054870;28;20021;-49
2023/01/28 05:26:46;;;;;;;42.75;24.05;;;3.00;99.90;;;;;;5054905;28;20098;-51
2023/01/28 05:29:11;;;;;;;41.60;24.92;;;3.10;99.90;;;;;;5032628;28;20528;-48
2023/01/28 05:31:37;;;;;;;37.47;20.23;;;3.00;99.90;;;;;;5032464;28;20437;-49
2023/01/28 05:34:03;;;;;;;42.67;25.55;;;3.10;99.90;;;;;;5032632;28;20065;-49
2023/01/28 05:36:28;;;;;;;44.20;24.70;;;3.10;99.90;;;;;;4999736;28;20042;-50
2023/01/28 05:38:54;;;;;;;41.85;22.73;;;3.20;99.90;;;;;;5032471;28;20128;-49
2023/01/28 05:41:20;;;;;;;39.85;22.92;;;3.30;99.90;;;;;;5032608;28;20025;-48
2023/01/28 05:43:46;;;;;;;40.90;23.30;;;3.10;99.90;;;;;;5015661;28;20041;-49
2023/01/28 05:46:12;;;;;;;40.80;22.50;;;3.20;99.90;;;;;;5015933;28;20037;-48
2023/01/28 05:48:37;;;;;;;45.50;24.35;;;3.20;99.90;;;;;;4999274;28;20132;-48
2023/01/28 05:51:04;;;;;;;43.72;24.88;;;3.10;99.90;;;;;;5032489;28;20034;-50
2023/01/28 05:53:30;;;;;;;38.78;21.95;;;3.10;99.90;;;;;;4967281;28;20124;-50
2023/01/28 05:55:56;;;;;;;36.10;19.13;;;3.20;99.90;;;;;;5032040;28;20500;-50
2023/01/28 05:58:22;;;;;;;45.22;25.13;;;3.30;99.90;;;;;;5031359;28;20112;-49
2023/01/28 06:00:48;;;;;;;41.17;25.02;;;3.20;99.90;;;;;;5049073;28;20079;-49
2023/01/28 06:03:14;;;;;;;39.95;22.55;;;3.30;99.90;;;;;;5054165;28;20044;-51
2023/01/28 06:05:39;;;;;;;45.40;25.00;;;3.30;99.90;;;;;;5053947;28;20025;-50
2023/01/28 06:08:05;;;;;;;44.92;24.42;;;3.30;99.90;;;;;;5002448;28;20048;-49
2023/01/28 06:10:31;;;;;;;46.78;26.35;;;3.20;99.90;;;;;;5054099;28;20029;-48
2023/01/28 06:12:57;;;;;;;41.35;24.77;;;3.30;99.90;;;;;;5053879;28;20392;-48
2023/01/28 06:15:23;;;;;;;45.75;24.75;;;3.50;99.90;;;;;;5002751;28;20392;-48
2023/01/28 06:17:48;;;;;;;42.85;27.48;;;3.40;99.90;;;;;;5053879;28;20025;-50
2023/01/28 06:20:15;;;;;;;33.13;17.90;;;3.50;99.90;;;;;;5054023;28;20031;-48
2023/01/28 06:22:41;;;;;;;46.08;26.85;;;3.30;99.90;;;;;;4986321;28;20037;-48
2023/01/28 06:25:08;;;;;;;45.40;27.55;;;3.50;99.90;;;;;;5053865;28;20033;-50
2023/01/28 06:27:34;;;;;;;37.58;20.40;;;3.50;99.90;;;;;;5053623;28;20044;-50
2023/01/28 06:30:01;;;;;;;45.22;25.75;;;3.50;99.90;;;;;;5035177;28;20037;-50
2023/01/28 06:32:27;;;;;;;40.13;23.50;;;3.40;99.90;;;;;;5053718;28;20044;-48
2023/01/28 06:34:53;;;;;;;48.95;27.27;;;3.40;99.90;;;;;;5053855;28;20029;-48
2023/01/28 06:37:18;;;;;;;43.03;27.35;;;3.50;99.90;;;;;;5053362;28;20565;-50
2023/01/28 06:39:44;;;;;;;41.47;23.00;;;3.60;99.90;;;;;;5053739;28;20433;-48
2023/01/28 06:42:10;;;;;;;46.92;25.75;;;3.60;99.90;;;;;;5035109;28;20052;-50
2023/01/28 06:44:35;;;;;;;38.28;18.77;;;3.70;99.90;;;;;;5053456;28;20086;-49
2023/01/28 06:47:01;;;;;;;43.53;25.40;;;3.60;99.90;;;;;;5053478;28;20036;-50
2023/01/28 06:49:27;;;;;;;50.03;27.08;;;3.60;99.90;;;;;;5053355;28;20384;-49
2023/01/28 06:51:53;;;;;;;47.50;26.25;;;3.70;99.90;;;;;;5001916;28;20037;-48
2023/01/28 06:54:19;;;;;;;48.33;27.20;;;3.70;99.90;;;;;;5034832;28;20370;-49
2023/01/28 06:56:44;;;;;;;44.17;25.38;;;3.70;99.90;;;;;;5034805;28;20031;-48
2023/01/28 06:59:10;;;;;;;46.17;26.15;;;3.60;99.90;;;;;;5053594;28;20346;-49
2023/01/28 07:01:36;;;;;;;46.67;27.77;;;3.60;99.90;;;;;;5053450;28;20414;-48
2023/01/28 07:04:01;;;;;;;47.67;25.83;;;3.70;99.90;;;;;;5053440;28;20433;-49
2023/01/28 07:06:27;;;;;;;53.90;30.33;;;3.70;99.90;;;;;;5053677;28;20051;-48
2023/01/28 07:08:53;;;;;;;57.72;30.75;;;3.80;99.90;;;;;;5057408;28;20033;-53
2023/01/28 07:11:18;;;;;;;60.38;31.42;;;3.80;99.90;;;;;;5056482;28;20465;-53
2023/01/28 07:13:46;;;;;;;53.85;29.38;;;3.70;99.90;;;;;;5056451;28;20044;-48
2023/01/28 07:16:12;;;;;;;52.30;29.80;;;3.70;99.90;;;;;;5055631;28;20037;-53
2023/01/28 07:18:38;;;;;;;47.55;28.58;;;3.80;99.90;;;;;;5056471;28;20028;-48
2023/01/28 07:21:04;;;;;;;55.30;30.02;;;3.70;99.90;;;;;;5021114;28;20041;-48
2023/01/28 07:23:29;;;;;;;56.83;30.70;;;3.70;99.90;;;;;;5020794;28;20485;-49
2023/01/28 07:26:00;;;;;;;57.88;31.58;;;3.80;99.90;;;;;;5037456;28;20044;-50
2023/01/28 07:28:26;;;;;;;62.80;33.55;;;3.80;99.90;;;;;;5051551;28;20052;-50
2023/01/28 07:30:52;;;;;;;52.15;30.52;;;3.80;99.90;;;;;;5052183;28;20132;-49
2023/01/28 07:33:18;;;;;;;50.42;28.15;;;3.80;99.90;;;;;;5052336;28;20481;-49
2023/01/28 07:35:45;;;;;;;49.40;26.60;;;3.60;99.90;;;;;;5052184;28;20021;-48
2023/01/28 07:38:11;;;;;;;50.35;29.15;;;3.60;99.90;;;;;;5052830;28;20036;-49
2023/01/28 07:40:37;;;;;;;52.47;29.95;;;3.50;99.90;;;;;;5052517;28;20078;-50
2023/01/28 07:43:05;;;;;;;47.08;25.80;;;3.60;99.90;;;;;;5052976;28;20029;-49
2023/01/28 07:45:32;;;;;;;34.08;19.98;;;3.60;99.90;;;;;;5051373;28;20120;-53
2023/01/28 07:48:04;;;;;;;50.88;29.15;;;3.50;99.90;;;;;;5053122;28;20393;-50
2023/01/28 07:50:33;;;;;;;50.70;27.60;;;3.50;99.90;;;;;;5052841;28;20104;-50
2023/01/28 07:53:01;;;;;;;48.55;25.50;;;3.50;99.90;;;;;;5050542;28;20033;-50
2023/01/28 07:55:26;;;;;;;47.70;29.58;;;3.50;99.90;;;;;;5033236;28;20044;-49
2023/01/28 07:57:53;;;;;;;57.13;32.70;;;3.50;99.90;;;;;;5052557;28;20025;-49
2023/01/28 08:00:21;;;;;;;57.17;30.95;;;3.50;99.90;;;;;;5051814;28;20372;-48
2023/01/28 08:02:47;;;;;;;56.97;33.55;;;3.40;99.90;;;;;;5049562;28;20051;-49
2023/01/28 08:05:20;;;;;;;56.63;34.25;;;3.50;99.90;;;;;;5052338;28;20087;-48
2023/01/28 08:07:49;;;;;;;51.90;32.40;;;3.60;99.90;;;;;;5049843;28;20502;-48
2023/01/28 08:10:16;;;;;;;53.65;30.23;;;3.70;99.90;;;;;;5052139;28;20093;-48
2023/01/28 08:12:55;;;;;;;48.10;26.70;;;3.60;99.90;;;;;;5067236;28;20036;-48
2023/01/28 08:15:21;;;;;;;40.72;17.95;;;3.40;99.90;;;;;;5052678;28;20037;-50
2023/01/28 08:17:47;;;;;;;49.60;28.50;;;3.30;99.90;;;;;;5052617;28;20029;-48
2023/01/28 08:20:13;;;;;;;52.67;29.70;;;3.50;99.90;;;;;;5053216;28;20496;-49
2023/01/28 08:22:39;;;;;;;58.95;32.53;;;3.50;99.90;;;;;;5056500;28;20032;-49
2023/01/28 08:25:05;;;;;;;53.40;30.35;;;3.50;99.90;;;;;;5056147;28;20025;-49
2023/01/28 08:27:31;;;;;;;51.25;27.85;;;3.40;99.90;;;;;;5055990;28;20033;-50
2023/01/28 08:29:56;;;;;;;63.25;34.58;;;3.60;99.90;;;;;;5056520;28;20376;-49
2023/01/28 08:32:22;;;;;;;54.72;29.25;;;3.20;99.90;;;;;;5054821;28;20049;-50
2023/01/28 08:34:48;;;;;;;38.05;22.15;;;3.40;99.90;;;;;;5037317;28;20068;-49
2023/01/28 08:37:14;;;;;;;71.18;38.40;;;3.50;99.90;;;;;;5055434;28;20025;-45
2023/01/28 08:39:39;;;;;;;54.33;29.25;;;3.50;99.90;;;;;;5055978;28;20120;-50
2023/01/28 08:42:06;;;;;;;57.90;32.30;;;3.40;99.90;;;;;;5055306;28;20041;-46
2023/01/28 08:44:32;;;;;;;52.33;27.92;;;3.50;99.90;;;;;;5052322;28;20366;-49
2023/01/28 08:46:58;;;;;;;60.08;30.73;;;3.60;99.90;;;;;;5053228;28;20041;-49
2023/01/28 08:49:23;;;;;;;52.28;30.27;;;3.60;99.90;;;;;;5036642;28;20071;-49
2023/01/28 08:51:49;;;;;;;56.35;28.83;;;3.60;99.90;;;;;;5054754;28;20028;-49
2023/01/28 08:54:15;;;;;;;61.65;30.75;;;3.60;99.90;;;;;;5050949;28;20029;-49
2023/01/28 08:56:44;;;;;;;54.08;30.00;;;3.60;99.90;;;;;;5019321;28;20041;-48
2023/01/28 08:59:12;;;;;;;53.63;29.90;;;3.80;99.90;;;;;;5055228;28;20029;-49
2023/01/28 09:01:38;;;;;;;58.55;29.83;;;3.80;99.90;;;;;;5054513;28;20085;-49
2023/01/28 09:04:04;;;;;;;55.95;30.25;;;3.90;99.90;;;;;;5055300;28;20532;-49
2023/01/28 09:06:30;;;;;;;57.00;31.63;;;3.90;99.90;;;;;;5069807;28;20171;-48
2023/01/28 09:08:56;;;;;;;51.90;28.85;;;4.00;99.90;;;;;;5053388;28;20128;-49
2023/01/28 09:11:22;;;;;;;53.05;29.10;;;4.00;99.90;;;;;;5054917;28;20040;-49
2023/01/28 09:13:48;;;;;;;59.75;32.40;;;4.10;99.90;;;;;;5054259;28;20029;-49
2023/01/28 09:16:14;;;;;;;57.00;29.77;;;4.10;99.90;;;;;;5077562;28;20036;-50
2023/01/28 09:18:40;;;;;;;60.08;31.35;;;4.10;99.90;;;;;;5054653;28;20063;-50
2023/01/28 09:21:06;;;;;;;60.85;32.88;;;4.20;99.90;;;;;;5052529;28;20055;-50
2023/01/28 09:23:36;;;;;;;59.10;31.38;;;4.10;99.90;;;;;;5035514;28;20041;-50
2023/01/28 09:26:04;;;;;;;49.97;29.30;;;4.10;99.90;;;;;;5054845;28;20025;-50
2023/01/28 09:28:30;;;;;;;50.22;28.17;;;4.00;99.90;;;;;;5053281;28;20060;-50
2023/01/28 09:31:10;;;;;;;29.67;16.40;;;4.10;99.90;;;;;;5055025;28;20342;-49
2023/01/28 09:33:38;;;;;;;51.83;28.95;;;3.90;99.90;;;;;;5054196;28;20076;-50
2023/01/28 09:36:05;;;;;;;56.13;30.60;;;4.00;99.90;;;;;;5053814;28;20040;-49
2023/01/28 09:38:33;;;;;;;57.67;30.25;;;4.00;99.90;;;;;;5053677;28;20025;-50
2023/01/28 09:41:02;;;;;;;63.20;31.40;;;3.90;99.90;;;;;;5050386;28;20037;-50
2023/01/28 09:44:00;;;;;;;50.83;29.58;;;3.90;99.90;;;;;;5053049;28;20064;-50
2023/01/28 09:46:36;;;;;;;51.75;27.58;;;3.80;99.90;;;;;;5050935;28;20029;-50
2023/01/28 09:49:15;;;;;;;45.67;25.27;;;3.70;99.90;;;;;;5052141;28;20037;-50
2023/01/28 09:51:51;;;;;;;55.33;30.92;;;3.80;99.90;;;;;;5052552;28;20021;-50
2023/01/28 09:54:32;;;;;;;52.30;30.13;;;3.80;99.90;;;;;;5053231;28;20036;-50
2023/01/28 09:57:04;;;;;;;50.42;26.35;;;3.70;99.90;;;;;;5052839;28;20091;-49
2023/01/28 09:59:34;;;;;;;54.47;28.10;;;3.80;99.90;;;;;;5053279;28;20409;-49
2023/01/28 10:02:11;;;;;;;41.08;21.25;;;3.80;99.90;;;;;;5053709;28;20029;-50
2023/01/28 10:04:58;;;;;;;49.35;28.13;;;3.70;99.90;;;;;;5053085;28;20025;-50
2023/01/28 10:07:37;;;;;;;65.70;31.27;;;3.70;99.90;;;;;;5013969;28;20045;-51
2023/01/28 10:10:14;;;;;;;60.70;29.25;;;3.50;99.90;;;;;;5054993;28;20037;-50
2023/01/28 10:12:49;;;;;;;82.10;41.40;;;3.50;99.90;;;;;;5054287;28;20031;-52
2023/01/28 10:15:38;;;;;;;67.40;36.70;;;3.50;99.90;;;;;;5058914;28;20040;-49
2023/01/28 10:18:09;;;;;;;38.30;21.42;;;3.60;99.90;;;;;;5050605;28;20583;-49
2023/01/28 10:20:54;;;;;;;60.00;33.88;;;3.50;99.90;;;;;;5050012;28;20025;-50
2023/01/28 10:23:31;;;;;;;57.05;31.30;;;3.40;99.90;;;;;;5052426;28;20017;-49
2023/01/28 10:25:59;;;;;;;44.60;24.35;;;3.50;99.90;;;;;;5057002;28;20075;-51
2023/01/28 10:28:28;;;;;;;50.47;28.23;;;3.50;99.90;;;;;;5053290;28;20045;-50
2023/01/28 10:30:54;;;;;;;50.25;29.15;;;3.60;99.90;;;;;;5023877;28;20592;-49
2023/01/28 10:33:29;;;;;;;47.00;27.75;;;3.60;99.90;;;;;;5027572;28;20057;-50
2023/01/28 10:35:56;;;;;;;39.97;22.90;;;3.50;99.90;;;;;;5025733;28;20118;-51
2023/01/28 10:38:25;;;;;;;54.40;32.15;;;3.40;99.90;;;;;;5025309;28;20497;-50
2023/01/28 10:40:54;;;;;;;46.75;25.20;;;3.60;99.90;;;;;;5020668;28;20496;-50
2023/01/28 10:43:24;;;;;;;53.22;29.73;;;3.60;99.90;;;;;;5005939;28;20037;-50
2023/01/28 10:46:11;;;;;;;50.30;27.17;;;3.60;99.90;;;;;;5020460;28;20061;-49
2023/01/28 10:49:08;;;;;;;49.15;29.48;;;3.70;99.90;;;;;;5026978;28;20037;-51
2023/01/28 10:51:37;;;;;;;38.00;20.13;;;3.70;99.90;;;;;;5025057;28;20037;-49
2023/01/28 10:54:26;;;;;;;33.90;17.90;;;3.60;99.90;;;;;;5005179;28;20030;-49
2023/01/28 10:56:56;;;;;;;51.88;28.60;;;3.40;99.90;;;;;;5022722;28;20050;-50
2023/01/28 10:59:26;;;;;;;60.78;32.55;;;3.50;99.90;;;;;;5022103;28;20486;-49
2023/01/28 11:01:58;;;;;;;58.03;30.50;;;3.50;99.90;;;;;;5033226;28;20123;-49
2023/01/28 11:04:30;;;;;;;58.53;32.50;;;3.50;99.90;;;;;;5062559;28;20017;-49
2023/01/28 11:07:03;;;;;;;69.75;38.25;;;3.50;99.90;;;;;;5060333;28;20060;-49
2023/01/28 11:09:34;;;;;;;63.33;35.35;;;3.80;99.90;;;;;;5055381;28;20024;-50
2023/01/28 11:12:26;;;;;;;53.88;31.10;;;3.60;99.90;;;;;;5056457;28;20032;-50
2023/01/28 11:14:57;;;;;;;78.45;38.80;;;3.70;99.90;;;;;;5059438;28;20033;-49
2023/01/28 11:17:25;;;;;;;49.17;23.92;;;3.80;99.90;;;;;;5058948;28;20397;-49
2023/01/28 11:19:53;;;;;;;50.13;26.38;;;3.50;99.90;;;;;;5046996;28;20457;-50
2023/01/28 11:22:23;;;;;;;53.13;31.25;;;3.50;99.90;;;;;;5054328;28;20021;-50
2023/01/28 11:24:49;;;;;;;51.08;27.30;;;3.70;99.90;;;;;;5025658;28;20030;-49
2023/01/28 11:27:17;;;;;;;67.25;37.75;;;3.60;99.90;;;;;;5051373;28;20058;-48
2023/01/28 11:29:44;;;;;;;64.45;34.88;;;3.50;99.90;;;;;;5036868;28;20029;-49
2023/01/28 11:32:21;;;;;;;62.05;31.80;;;3.80;99.90;;;;;;5046464;28;20052;-48
2023/01/28 11:34:52;;;;;;;54.28;29.90;;;3.70;99.90;;;;;;5066202;28;20025;-48
2023/01/28 11:37:21;;;;;;;53.33;30.98;;;3.70;99.90;;;;;;5036011;28;20545;-49
2023/01/28 11:39:47;;;;;;;63.97;36.17;;;3.70;99.90;;;;;;5053630;28;20099;-50
2023/01/28 11:42:20;;;;;;;61.85;33.92;;;3.80;99.90;;;;;;5054869;28;20420;-49
2023/01/28 11:44:47;;;;;;;56.33;32.40;;;3.80;99.90;;;;;;5050609;28;20385;-48
2023/01/28 11:47:42;;;;;;;49.20;26.92;;;3.70;99.90;;;;;;5050291;28;20041;-48
2023/01/28 11:50:13;;;;;;;56.05;27.92;;;3.80;99.90;;;;;;5004860;28;20389;-49
2023/01/28 11:53:03;;;;;;;56.28;32.15;;;3.90;99.90;;;;;;4993504;28;20041;-49
2023/01/28 11:56:01;;;;;;;61.72;35.25;;;4.00;99.90;;;;;;4978249;28;20559;-49
2023/01/28 11:58:41;;;;;;;52.88;30.08;;;4.00;99.90;;;;;;5013461;28;20553;-49
2023/01/28 12:01:15;;;;;;;51.15;29.20;;;3.90;99.90;;;;;;5013263;28;20046;-49
2023/01/28 12:04:06;;;;;;;57.13;33.10;;;4.00;99.90;;;;;;5028543;28;20112;-49
2023/01/28 12:06:40;;;;;;;58.05;30.95;;;4.00;99.90;;;;;;5012066;28;20038;-49
2023/01/28 12:09:34;;;;;;;46.20;24.92;;;4.00;99.90;;;;;;5012508;28;20033;-49
2023/01/28 12:12:37;;;;;;;52.20;30.55;;;4.00;99.90;;;;;;5013539;28;20548;-49
2023/01/28 12:15:50;;;;;;;53.90;30.58;;;3.90;99.90;;;;;;5013731;28;20026;-48
2023/01/28 12:18:46;;;;;;;57.58;30.42;;;3.80;99.90;;;;;;4975501;28;20126;-49
2023/01/28 12:21:25;;;;;;;52.42;30.48;;;3.80;99.90;;;;;;4973796;28;20050;-49
2023/01/28 12:23:53;;;;;;;47.17;25.55;;;3.90;99.90;;;;;;4973360;28;20419;-48
2023/01/28 12:27:02;;;;;;;52.60;29.55;;;3.80;99.90;;;;;;4981585;28;20096;-51
2023/01/28 12:29:40;;;;;;;54.60;31.50;;;3.90;99.90;;;;;;4935524;29;20044;-49
2023/01/28 12:32:12;;;;;;;48.85;28.15;;;3.70;99.90;;;;;;4935111;29;20535;-49
2023/01/28 12:34:50;;;;;;;50.90;27.27;;;3.70;99.90;;;;;;4919176;29;20040;-53
2023/01/28 12:37:45;;;;;;;53.22;29.63;;;3.80;99.90;;;;;;4935527;29;20031;-48
2023/01/28 12:40:20;;;;;;;56.20;30.42;;;3.80;99.90;;;;;;4919052;29;20043;-49
2023/01/28 12:42:52;;;;;;;55.70;30.13;;;3.80;99.90;;;;;;4919052;29;20048;-50
2023/01/28 12:45:21;;;;;;;35.92;18.77;;;3.70;99.90;;;;;;4935369;29;20024;-49
2023/01/28 12:47:54;;;;;;;56.05;32.17;;;3.60;99.90;;;;;;4939544;29;20043;-49
2023/01/28 12:50:26;;;;;;;56.13;31.23;;;3.80;99.90;;;;;;4937687;29;20384;-49
2023/01/28 12:52:59;;;;;;;49.72;27.55;;;3.80;99.90;;;;;;4953845;29;20106;-48
2023/01/28 12:55:57;;;;;;;52.38;29.80;;;3.70;99.90;;;;;;4975613;28;20085;-49
2023/01/28 12:58:37;;;;;;;54.38;28.95;;;3.50;99.90;;;;;;4990953;28;20066;-49
2023/01/28 13:01:08;;;;;;;56.78;31.38;;;3.60;99.90;;;;;;5045717;28;20056;-49
2023/01/28 13:03:57;;;;;;;49.47;25.50;;;3.60;99.90;;;;;;5051390;28;20048;-49
2023/01/28 13:06:47;;;;;;;27.88;13.57;;;3.70;99.90;;;;;;5052023;28;20041;-48
2023/01/28 13:09:25;;;;;;;52.72;30.67;;;3.60;99.90;;;;;;5050313;28;20127;-49
2023/01/28 13:11:55;;;;;;;52.33;30.23;;;3.60;99.90;;;;;;5052388;28;20052;-49
2023/01/28 13:14:26;;;;;;;27.20;17.30;;;3.70;99.90;;;;;;5060135;28;20439;-49
2023/01/28 13:16:52;;;;;;;52.75;31.50;;;3.50;99.90;;;;;;5060162;28;20392;-49
2023/01/28 13:19:17;;;;;;;58.63;32.83;;;3.50;99.90;;;;;;5062107;28;20111;-48
2023/01/28 13:21:44;;;;;;;57.20;30.63;;;3.60;99.90;;;;;;5038957;28;20780;-48
2023/01/28 13:24:12;;;;;;;42.42;23.13;;;3.50;99.90;;;;;;5038098;28;20053;-48
2023/01/28 13:26:47;;;;;;;31.95;17.05;;;3.70;99.90;;;;;;5029143;28;20116;-50
2023/01/28 13:29:24;;;;;;;54.40;28.17;;;3.70;99.90;;;;;;5049324;28;20052;-48